PWSweather.com
Personal Weather Stations
Station Observations
NAGEO265NE
Bedzin GrodziecPL 42-506

Bedzin GrodziecPL 42-506

Lat: 50.347, Lon: 19.079

Elevation: 948

Station Type: WH1080

http://www.meteo-grodziec.pl/

High Low Average
Temperature 41.9°F5.5°C 23.4°F-4.8°C 34.2°F1.2°C
Dew Point 35.4°F1.9°C 21.4°F-5.9°C 29.3°F-1.5°C
Winds 4.0 mph 6.4 kmh Calm Calm 1.0 mph E1.6 kmh E
Wind Gusts 9.0 mph14.5 kmh -- 5.0 mph8.0 kmh
Humidity 94% 70% 82%
Pressure 29.66 in1004.4 mb 29.47 in998.0 mb -
Precipitation 0.04 in1.0 mm - -
Hour Temp Dew Point Humidity Winds Wind Gusts Pressure Precip Precip Rate Daily Precip Total
12:00 AM 26.6°F-3.0°C 24.6°F-4.1°C 92% Calm Calm 1.0 mph1.6 kmh 29.66 in1004.4 mb 0.00 in0.0 mm 0.00 in0.0 mm 0.00 in0.0 mm
12:05 AM 26.4°F-3.1°C 24.4°F-4.2°C 92% Calm Calm 1.0 mph1.6 kmh 29.66 in1004.4 mb 0.00 in0.0 mm 0.00 in0.0 mm 0.00 in0.0 mm
12:10 AM 26.4°F-3.1°C 24.4°F-4.2°C 92% Calm Calm 2.0 mph3.2 kmh 29.66 in1004.4 mb 0.00 in0.0 mm 0.00 in0.0 mm 0.00 in0.0 mm
12:15 AM 26.4°F-3.1°C 24.4°F-4.2°C 92% Calm Calm 2.0 mph3.2 kmh 29.66 in1004.4 mb 0.00 in0.0 mm 0.00 in0.0 mm 0.00 in0.0 mm
12:20 AM 26.4°F-3.1°C 24.4°F-4.2°C 92% Calm Calm 2.0 mph3.2 kmh 29.66 in1004.4 mb 0.00 in0.0 mm 0.00 in0.0 mm 0.00 in0.0 mm
12:25 AM 26.4°F-3.1°C 24.4°F-4.2°C 92% Calm Calm 1.0 mph1.6 kmh 29.66 in1004.4 mb 0.00 in0.0 mm 0.00 in0.0 mm 0.00 in0.0 mm
12:30 AM 25.9°F-3.4°C 23.7°F-4.6°C 92% Calm Calm 1.0 mph1.6 kmh 29.66 in1004.4 mb 0.00 in0.0 mm 0.00 in0.0 mm 0.00 in0.0 mm
12:35 AM 25.0°F-3.9°C 22.8°F-5.1°C 91% Calm Calm -- 29.66 in1004.4 mb 0.00 in0.0 mm 0.00 in0.0 mm 0.00 in0.0 mm
12:40 AM 24.6°F-4.1°C 22.6°F-5.2°C 92% Calm Calm -- 29.66 in1004.4 mb 0.00 in0.0 mm 0.00 in0.0 mm 0.00 in0.0 mm
12:45 AM 23.5°F-4.7°C 21.2°F-6.0°C 91% Calm Calm -- 29.67 in1004.7 mb 0.00 in0.0 mm 0.00 in0.0 mm 0.00 in0.0 mm
12:50 AM 22.8°F-5.1°C 20.7°F-6.3°C 91% Calm Calm -- 29.67 in1004.7 mb 0.00 in0.0 mm 0.00 in0.0 mm 0.00 in0.0 mm
12:55 AM 22.6°F-5.2°C 20.7°F-6.3°C 92% Calm Calm -- 29.66 in1004.4 mb 0.00 in0.0 mm 0.00 in0.0 mm 0.00 in0.0 mm
01:00 AM 23.4°F-4.8°C 21.4°F-5.9°C 92% Calm Calm 1.0 mph1.6 kmh 29.66 in1004.4 mb 0.00 in0.0 mm 0.00 in0.0 mm 0.00 in0.0 mm
01:05 AM 24.4°F-4.2°C 22.8°F-5.1°C 93% Calm Calm 1.0 mph1.6 kmh 29.66 in1004.4 mb 0.00 in0.0 mm 0.00 in0.0 mm 0.00 in0.0 mm
01:10 AM 25.2°F-3.8°C 23.4°F-4.8°C 93% Calm Calm 1.0 mph1.6 kmh 29.66 in1004.4 mb 0.00 in0.0 mm 0.00 in0.0 mm 0.00 in0.0 mm
01:15 AM 25.5°F-3.6°C 23.9°F-4.5°C 93% Calm Calm 1.0 mph1.6 kmh 29.66 in1004.4 mb 0.00 in0.0 mm 0.00 in0.0 mm 0.00 in0.0 mm
01:20 AM 25.9°F-3.4°C 24.1°F-4.4°C 93% Calm Calm 1.0 mph1.6 kmh 29.66 in1004.4 mb 0.00 in0.0 mm 0.00 in0.0 mm 0.00 in0.0 mm
01:25 AM 26.1°F-3.3°C 24.6°F-4.1°C 94% Calm Calm 2.0 mph3.2 kmh 29.66 in1004.4 mb 0.00 in0.0 mm 0.00 in0.0 mm 0.00 in0.0 mm
01:30 AM 26.4°F-3.1°C 25.0°F-3.9°C 94% Calm Calm 2.0 mph3.2 kmh 29.66 in1004.4 mb 0.00 in0.0 mm 0.00 in0.0 mm 0.00 in0.0 mm
01:35 AM 26.2°F-3.2°C 24.6°F-4.1°C 94% Calm Calm 1.0 mph1.6 kmh 29.66 in1004.4 mb 0.00 in0.0 mm 0.00 in0.0 mm 0.00 in0.0 mm
01:40 AM 26.1°F-3.3°C 24.4°F-4.2°C 93% Calm Calm 2.0 mph3.2 kmh 29.66 in1004.4 mb 0.00 in0.0 mm 0.00 in0.0 mm 0.00 in0.0 mm
01:45 AM 26.2°F-3.2°C 24.8°F-4.0°C 94% Calm Calm 2.0 mph3.2 kmh 29.66 in1004.4 mb 0.00 in0.0 mm 0.00 in0.0 mm 0.00 in0.0 mm
01:50 AM 26.4°F-3.1°C 25.0°F-3.9°C 94% Calm Calm 2.0 mph3.2 kmh 29.65 in1004.1 mb 0.00 in0.0 mm 0.00 in0.0 mm 0.00 in0.0 mm
01:55 AM 26.6°F-3.0°C 25.2°F-3.8°C 94% Calm Calm 2.0 mph3.2 kmh 29.65 in1004.1 mb 0.00 in0.0 mm 0.00 in0.0 mm 0.00 in0.0 mm
02:00 AM 26.6°F-3.0°C 25.2°F-3.8°C 94% Calm Calm 2.0 mph3.2 kmh 29.65 in1004.1 mb 0.00 in0.0 mm 0.00 in0.0 mm 0.00 in0.0 mm
02:05 AM 26.8°F-2.9°C 25.2°F-3.8°C 94% 1.0 mph ENE1.6 kmh ENE 2.0 mph3.2 kmh 29.64 in1003.7 mb 0.00 in0.0 mm 0.00 in0.0 mm 0.00 in0.0 mm
02:10 AM 26.8°F-2.9°C 25.3°F-3.7°C 94% 1.0 mph ENE1.6 kmh ENE 2.0 mph3.2 kmh 29.65 in1004.1 mb 0.00 in0.0 mm 0.00 in0.0 mm 0.00 in0.0 mm
02:15 AM 26.8°F-2.9°C 25.2°F-3.8°C 94% Calm Calm 2.0 mph3.2 kmh 29.65 in1004.1 mb 0.00 in0.0 mm 0.00 in0.0 mm 0.00 in0.0 mm
02:20 AM 26.8°F-2.9°C 25.2°F-3.8°C 94% Calm Calm 2.0 mph3.2 kmh 29.64 in1003.7 mb 0.00 in0.0 mm 0.00 in0.0 mm 0.00 in0.0 mm
02:25 AM 26.8°F-2.9°C 25.0°F-3.9°C 93% Calm Calm 2.0 mph3.2 kmh 29.64 in1003.7 mb 0.00 in0.0 mm 0.00 in0.0 mm 0.00 in0.0 mm
02:30 AM 26.8°F-2.9°C 25.0°F-3.9°C 93% Calm Calm 4.0 mph6.4 kmh 29.64 in1003.7 mb 0.00 in0.0 mm 0.00 in0.0 mm 0.00 in0.0 mm
02:35 AM 26.8°F-2.9°C 25.0°F-3.9°C 93% 1.0 mph ENE1.6 kmh ENE 4.0 mph6.4 kmh 29.64 in1003.7 mb 0.00 in0.0 mm 0.00 in0.0 mm 0.00 in0.0 mm
02:40 AM 26.8°F-2.9°C 25.0°F-3.9°C 93% Calm Calm 2.0 mph3.2 kmh 29.64 in1003.7 mb 0.00 in0.0 mm 0.00 in0.0 mm 0.00 in0.0 mm
02:45 AM 26.6°F-3.0°C 24.8°F-4.0°C 93% Calm Calm 1.0 mph1.6 kmh 29.64 in1003.7 mb 0.00 in0.0 mm 0.00 in0.0 mm 0.00 in0.0 mm
02:50 AM 26.6°F-3.0°C 24.8°F-4.0°C 93% Calm Calm 2.0 mph3.2 kmh 29.64 in1003.7 mb 0.00 in0.0 mm 0.00 in0.0 mm 0.00 in0.0 mm
02:55 AM 26.6°F-3.0°C 24.8°F-4.0°C 93% 1.0 mph ENE1.6 kmh ENE 3.0 mph4.8 kmh 29.64 in1003.7 mb 0.00 in0.0 mm 0.00 in0.0 mm 0.00 in0.0 mm
03:00 AM 26.6°F-3.0°C 24.8°F-4.0°C 93% 1.0 mph E1.6 kmh E 4.0 mph6.4 kmh 29.64 in1003.7 mb 0.00 in0.0 mm 0.00 in0.0 mm 0.00 in0.0 mm
03:05 AM 26.8°F-2.9°C 24.6°F-4.1°C 92% 1.0 mph ENE1.6 kmh ENE 4.0 mph6.4 kmh 29.63 in1003.4 mb 0.00 in0.0 mm 0.00 in0.0 mm 0.00 in0.0 mm
03:10 AM 26.8°F-2.9°C 24.8°F-4.0°C 92% 1.0 mph ENE1.6 kmh ENE 3.0 mph4.8 kmh 29.63 in1003.4 mb 0.00 in0.0 mm 0.00 in0.0 mm 0.00 in0.0 mm
03:15 AM 26.8°F-2.9°C 24.6°F-4.1°C 92% 1.0 mph E1.6 kmh E 3.0 mph4.8 kmh 29.63 in1003.4 mb 0.00 in0.0 mm 0.00 in0.0 mm 0.00 in0.0 mm
03:20 AM 26.8°F-2.9°C 24.6°F-4.1°C 92% Calm Calm 3.0 mph4.8 kmh 29.64 in1003.7 mb 0.00 in0.0 mm 0.00 in0.0 mm 0.00 in0.0 mm
03:25 AM 26.4°F-3.1°C 24.3°F-4.3°C 91% Calm Calm 2.0 mph3.2 kmh 29.64 in1003.7 mb 0.00 in0.0 mm 0.00 in0.0 mm 0.00 in0.0 mm
03:30 AM 26.2°F-3.2°C 24.1°F-4.4°C 91% Calm Calm -- 29.64 in1003.7 mb 0.00 in0.0 mm 0.00 in0.0 mm 0.00 in0.0 mm
03:35 AM 26.2°F-3.2°C 23.9°F-4.5°C 91% Calm Calm 3.0 mph4.8 kmh 29.63 in1003.4 mb 0.00 in0.0 mm 0.00 in0.0 mm 0.00 in0.0 mm
03:40 AM 26.2°F-3.2°C 23.9°F-4.5°C 91% Calm Calm 3.0 mph4.8 kmh 29.63 in1003.4 mb 0.00 in0.0 mm 0.00 in0.0 mm 0.00 in0.0 mm
03:45 AM 26.2°F-3.2°C 24.1°F-4.4°C 91% Calm Calm 2.0 mph3.2 kmh 29.63 in1003.4 mb 0.00 in0.0 mm 0.00 in0.0 mm 0.00 in0.0 mm
03:50 AM 26.2°F-3.2°C 23.9°F-4.5°C 91% Calm Calm 1.0 mph1.6 kmh 29.63 in1003.4 mb 0.00 in0.0 mm 0.00 in0.0 mm 0.00 in0.0 mm
03:55 AM 26.2°F-3.2°C 24.1°F-4.4°C 91% Calm Calm -- 29.63 in1003.4 mb 0.00 in0.0 mm 0.00 in0.0 mm 0.00 in0.0 mm
04:00 AM 26.2°F-3.2°C 23.9°F-4.5°C 91% Calm Calm 1.0 mph1.6 kmh 29.63 in1003.4 mb 0.00 in0.0 mm 0.00 in0.0 mm 0.00 in0.0 mm
04:05 AM 26.2°F-3.2°C 23.9°F-4.5°C 91% Calm Calm 2.0 mph3.2 kmh 29.63 in1003.4 mb 0.00 in0.0 mm 0.00 in0.0 mm 0.00 in0.0 mm
04:10 AM 26.2°F-3.2°C 24.1°F-4.4°C 91% Calm Calm 2.0 mph3.2 kmh 29.62 in1003.0 mb 0.00 in0.0 mm 0.00 in0.0 mm 0.00 in0.0 mm
04:15 AM 26.4°F-3.1°C 24.3°F-4.3°C 91% Calm Calm 2.0 mph3.2 kmh 29.62 in1003.0 mb 0.00 in0.0 mm 0.00 in0.0 mm 0.00 in0.0 mm
04:20 AM 26.8°F-2.9°C 24.3°F-4.3°C 90% 1.0 mph E1.6 kmh E 5.0 mph8.0 kmh 29.62 in1003.0 mb 0.00 in0.0 mm 0.00 in0.0 mm 0.00 in0.0 mm
04:25 AM 27.1°F-2.7°C 24.6°F-4.1°C 90% 2.0 mph E3.2 kmh E 5.0 mph8.0 kmh 29.62 in1003.0 mb 0.00 in0.0 mm 0.00 in0.0 mm 0.00 in0.0 mm
04:30 AM 27.1°F-2.7°C 24.4°F-4.2°C 89% 2.0 mph E3.2 kmh E 5.0 mph8.0 kmh 29.62 in1003.0 mb 0.00 in0.0 mm 0.00 in0.0 mm 0.00 in0.0 mm
04:35 AM 27.3°F-2.6°C 24.3°F-4.3°C 88% 1.0 mph E1.6 kmh E 4.0 mph6.4 kmh 29.62 in1003.0 mb 0.00 in0.0 mm 0.00 in0.0 mm 0.00 in0.0 mm
04:40 AM 27.1°F-2.7°C 24.1°F-4.4°C 88% Calm Calm 3.0 mph4.8 kmh 29.63 in1003.4 mb 0.00 in0.0 mm 0.00 in0.0 mm 0.00 in0.0 mm
04:45 AM 27.0°F-2.8°C 23.9°F-4.5°C 88% Calm Calm 3.0 mph4.8 kmh 29.63 in1003.4 mb 0.00 in0.0 mm 0.00 in0.0 mm 0.00 in0.0 mm
04:50 AM 27.0°F-2.8°C 23.9°F-4.5°C 88% Calm Calm 3.0 mph4.8 kmh 29.62 in1003.0 mb 0.00 in0.0 mm 0.00 in0.0 mm 0.00 in0.0 mm
04:55 AM 26.8°F-2.9°C 23.5°F-4.7°C 88% 1.0 mph ENE1.6 kmh ENE 3.0 mph4.8 kmh 29.62 in1003.0 mb 0.00 in0.0 mm 0.00 in0.0 mm 0.00 in0.0 mm
05:00 AM 26.4°F-3.1°C 23.4°F-4.8°C 88% 1.0 mph E1.6 kmh E 3.0 mph4.8 kmh 29.62 in1003.0 mb 0.00 in0.0 mm 0.00 in0.0 mm 0.00 in0.0 mm
05:05 AM 26.4°F-3.1°C 23.4°F-4.8°C 88% 1.0 mph E1.6 kmh E 3.0 mph4.8 kmh 29.62 in1003.0 mb 0.00 in0.0 mm 0.00 in0.0 mm 0.00 in0.0 mm
05:10 AM 26.4°F-3.1°C 23.4°F-4.8°C 88% Calm Calm 2.0 mph3.2 kmh 29.62 in1003.0 mb 0.00 in0.0 mm 0.00 in0.0 mm 0.00 in0.0 mm
05:15 AM 26.4°F-3.1°C 23.4°F-4.8°C 88% Calm Calm 2.0 mph3.2 kmh 29.62 in1003.0 mb 0.00 in0.0 mm 0.00 in0.0 mm 0.00 in0.0 mm
05:20 AM 26.4°F-3.1°C 23.2°F-4.9°C 87% Calm Calm 2.0 mph3.2 kmh 29.62 in1003.0 mb 0.00 in0.0 mm 0.00 in0.0 mm 0.00 in0.0 mm
05:25 AM 26.6°F-3.0°C 23.2°F-4.9°C 87% Calm Calm 2.0 mph3.2 kmh 29.62 in1003.0 mb 0.00 in0.0 mm 0.00 in0.0 mm 0.00 in0.0 mm
05:30 AM 26.8°F-2.9°C 23.4°F-4.8°C 87% Calm Calm 2.0 mph3.2 kmh 29.62 in1003.0 mb 0.00 in0.0 mm 0.00 in0.0 mm 0.00 in0.0 mm
05:35 AM 27.0°F-2.8°C 23.5°F-4.7°C 87% Calm Calm 2.0 mph3.2 kmh 29.62 in1003.0 mb 0.00 in0.0 mm 0.00 in0.0 mm 0.00 in0.0 mm
05:40 AM 27.1°F-2.7°C 23.7°F-4.6°C 87% Calm Calm 4.0 mph6.4 kmh 29.62 in1003.0 mb 0.00 in0.0 mm 0.00 in0.0 mm 0.00 in0.0 mm
05:45 AM 27.1°F-2.7°C 23.5°F-4.7°C 86% 1.0 mph E1.6 kmh E 4.0 mph6.4 kmh 29.62 in1003.0 mb 0.00 in0.0 mm 0.00 in0.0 mm 0.00 in0.0 mm
05:50 AM 27.3°F-2.6°C 23.7°F-4.6°C 86% 1.0 mph E1.6 kmh E 5.0 mph8.0 kmh 29.62 in1003.0 mb 0.00 in0.0 mm 0.00 in0.0 mm 0.00 in0.0 mm
05:55 AM 27.3°F-2.6°C 23.7°F-4.6°C 86% 1.0 mph E1.6 kmh E 5.0 mph8.0 kmh 29.62 in1003.0 mb 0.00 in0.0 mm 0.00 in0.0 mm 0.00 in0.0 mm
06:00 AM 27.1°F-2.7°C 23.4°F-4.8°C 85% Calm Calm 2.0 mph3.2 kmh 29.63 in1003.4 mb 0.00 in0.0 mm 0.00 in0.0 mm 0.00 in0.0 mm
06:05 AM 27.1°F-2.7°C 23.5°F-4.7°C 86% Calm Calm 2.0 mph3.2 kmh 29.62 in1003.0 mb 0.00 in0.0 mm 0.00 in0.0 mm 0.00 in0.0 mm
06:10 AM 27.0°F-2.8°C 23.4°F-4.8°C 86% Calm Calm 1.0 mph1.6 kmh 29.62 in1003.0 mb 0.00 in0.0 mm 0.00 in0.0 mm 0.00 in0.0 mm
06:15 AM 27.0°F-2.8°C 23.4°F-4.8°C 86% Calm Calm 1.0 mph1.6 kmh 29.62 in1003.0 mb 0.00 in0.0 mm 0.00 in0.0 mm 0.00 in0.0 mm
06:20 AM 26.8°F-2.9°C 23.2°F-4.9°C 86% Calm Calm 1.0 mph1.6 kmh 29.62 in1003.0 mb 0.00 in0.0 mm 0.00 in0.0 mm 0.00 in0.0 mm
06:25 AM 26.8°F-2.9°C 23.0°F-5.0°C 86% Calm Calm 1.0 mph1.6 kmh 29.62 in1003.0 mb 0.00 in0.0 mm 0.00 in0.0 mm 0.00 in0.0 mm
06:30 AM 26.6°F-3.0°C 23.0°F-5.0°C 86% Calm Calm -- 29.62 in1003.0 mb 0.00 in0.0 mm 0.00 in0.0 mm 0.00 in0.0 mm
06:35 AM 26.6°F-3.0°C 23.0°F-5.0°C 86% Calm Calm 1.0 mph1.6 kmh 29.62 in1003.0 mb 0.00 in0.0 mm 0.00 in0.0 mm 0.00 in0.0 mm
06:40 AM 26.4°F-3.1°C 22.8°F-5.1°C 86% Calm Calm 1.0 mph1.6 kmh 29.62 in1003.0 mb 0.00 in0.0 mm 0.00 in0.0 mm 0.00 in0.0 mm
06:45 AM 26.1°F-3.3°C 22.5°F-5.3°C 86% Calm Calm -- 29.63 in1003.4 mb 0.00 in0.0 mm 0.00 in0.0 mm 0.00 in0.0 mm
06:50 AM 25.7°F-3.5°C 22.1°F-5.5°C 86% Calm Calm -- 29.63 in1003.4 mb 0.00 in0.0 mm 0.00 in0.0 mm 0.00 in0.0 mm
06:55 AM 25.2°F-3.8°C 21.9°F-5.6°C 87% Calm Calm -- 29.63 in1003.4 mb 0.00 in0.0 mm 0.00 in0.0 mm 0.00 in0.0 mm
07:00 AM 24.8°F-4.0°C 21.6°F-5.8°C 87% Calm Calm -- 29.62 in1003.0 mb 0.00 in0.0 mm 0.00 in0.0 mm 0.00 in0.0 mm
07:05 AM 24.6°F-4.1°C 21.7°F-5.7°C 88% Calm Calm -- 29.62 in1003.0 mb 0.00 in0.0 mm 0.00 in0.0 mm 0.00 in0.0 mm
07:10 AM 24.6°F-4.1°C 21.6°F-5.8°C 88% Calm Calm -- 29.63 in1003.4 mb 0.00 in0.0 mm 0.00 in0.0 mm 0.00 in0.0 mm
07:15 AM 24.4°F-4.2°C 21.4°F-5.9°C 88% Calm Calm -- 29.63 in1003.4 mb 0.00 in0.0 mm 0.00 in0.0 mm 0.00 in0.0 mm
07:20 AM 24.4°F-4.2°C 21.4°F-5.9°C 88% Calm Calm -- 29.63 in1003.4 mb 0.00 in0.0 mm 0.00 in0.0 mm 0.00 in0.0 mm
07:25 AM 24.6°F-4.1°C 21.6°F-5.8°C 88% Calm Calm -- 29.63 in1003.4 mb 0.00 in0.0 mm 0.00 in0.0 mm 0.00 in0.0 mm
07:30 AM 24.6°F-4.1°C 21.9°F-5.6°C 89% Calm Calm -- 29.63 in1003.4 mb 0.00 in0.0 mm 0.00 in0.0 mm 0.00 in0.0 mm
07:35 AM 25.0°F-3.9°C 22.1°F-5.5°C 89% Calm Calm 1.0 mph1.6 kmh 29.63 in1003.4 mb 0.00 in0.0 mm 0.00 in0.0 mm 0.00 in0.0 mm
07:40 AM 25.2°F-3.8°C 22.5°F-5.3°C 89% Calm Calm 1.0 mph1.6 kmh 29.63 in1003.4 mb 0.00 in0.0 mm 0.00 in0.0 mm 0.00 in0.0 mm
07:45 AM 25.5°F-3.6°C 22.5°F-5.3°C 88% Calm Calm 2.0 mph3.2 kmh 29.63 in1003.4 mb 0.00 in0.0 mm 0.00 in0.0 mm 0.00 in0.0 mm
07:50 AM 25.9°F-3.4°C 22.8°F-5.1°C 88% 1.0 mph E1.6 kmh E 2.0 mph3.2 kmh 29.63 in1003.4 mb 0.00 in0.0 mm 0.00 in0.0 mm 0.00 in0.0 mm
07:55 AM 26.1°F-3.3°C 23.0°F-5.0°C 88% 1.0 mph E1.6 kmh E 3.0 mph4.8 kmh 29.63 in1003.4 mb 0.00 in0.0 mm 0.00 in0.0 mm 0.00 in0.0 mm
08:00 AM 26.2°F-3.2°C 22.8°F-5.1°C 87% 1.0 mph ENE1.6 kmh ENE 4.0 mph6.4 kmh 29.62 in1003.0 mb 0.00 in0.0 mm 0.00 in0.0 mm 0.00 in0.0 mm
08:05 AM 26.4°F-3.1°C 23.2°F-4.9°C 87% 2.0 mph ENE3.2 kmh ENE 5.0 mph8.0 kmh 29.62 in1003.0 mb 0.00 in0.0 mm 0.00 in0.0 mm 0.00 in0.0 mm
08:10 AM 26.8°F-2.9°C 23.4°F-4.8°C 87% 3.0 mph E4.8 kmh E 7.0 mph11.3 kmh 29.62 in1003.0 mb 0.00 in0.0 mm 0.00 in0.0 mm 0.00 in0.0 mm
08:15 AM 27.1°F-2.7°C 23.5°F-4.7°C 86% 2.0 mph E3.2 kmh E 7.0 mph11.3 kmh 29.62 in1003.0 mb 0.00 in0.0 mm 0.00 in0.0 mm 0.00 in0.0 mm
08:20 AM 27.1°F-2.7°C 23.5°F-4.7°C 86% 1.0 mph E1.6 kmh E 5.0 mph8.0 kmh 29.63 in1003.4 mb 0.00 in0.0 mm 0.00 in0.0 mm 0.00 in0.0 mm
08:25 AM 27.3°F-2.6°C 23.7°F-4.6°C 86% 1.0 mph E1.6 kmh E 4.0 mph6.4 kmh 29.62 in1003.0 mb 0.00 in0.0 mm 0.00 in0.0 mm 0.00 in0.0 mm
08:30 AM 27.3°F-2.6°C 23.5°F-4.7°C 85% 2.0 mph E3.2 kmh E 7.0 mph11.3 kmh 29.62 in1003.0 mb 0.00 in0.0 mm 0.00 in0.0 mm 0.00 in0.0 mm
08:35 AM 27.7°F-2.4°C 23.7°F-4.6°C 85% 3.0 mph E4.8 kmh E 8.0 mph12.9 kmh 29.62 in1003.0 mb 0.00 in0.0 mm 0.00 in0.0 mm 0.00 in0.0 mm
08:40 AM 28.0°F-2.2°C 24.1°F-4.4°C 85% 3.0 mph E4.8 kmh E 8.0 mph12.9 kmh 29.62 in1003.0 mb 0.00 in0.0 mm 0.00 in0.0 mm 0.00 in0.0 mm
08:45 AM 28.2°F-2.1°C 24.1°F-4.4°C 84% 3.0 mph E4.8 kmh E 9.0 mph14.5 kmh 29.62 in1003.0 mb 0.00 in0.0 mm 0.00 in0.0 mm 0.00 in0.0 mm
08:50 AM 28.6°F-1.9°C 24.1°F-4.4°C 83% 3.0 mph E4.8 kmh E 9.0 mph14.5 kmh 29.62 in1003.0 mb 0.00 in0.0 mm 0.00 in0.0 mm 0.00 in0.0 mm
08:55 AM 28.6°F-1.9°C 24.1°F-4.4°C 83% 3.0 mph E4.8 kmh E 6.0 mph9.7 kmh 29.62 in1003.0 mb 0.00 in0.0 mm 0.00 in0.0 mm 0.00 in0.0 mm
09:00 AM 28.8°F-1.8°C 24.3°F-4.3°C 83% 2.0 mph E3.2 kmh E 6.0 mph9.7 kmh 29.63 in1003.4 mb 0.00 in0.0 mm 0.00 in0.0 mm 0.00 in0.0 mm
09:05 AM 28.8°F-1.8°C 24.3°F-4.3°C 83% 1.0 mph E1.6 kmh E 6.0 mph9.7 kmh 29.63 in1003.4 mb 0.00 in0.0 mm 0.00 in0.0 mm 0.00 in0.0 mm
09:10 AM 28.9°F-1.7°C 24.4°F-4.2°C 83% 1.0 mph E1.6 kmh E 4.0 mph6.4 kmh 29.63 in1003.4 mb 0.00 in0.0 mm 0.00 in0.0 mm 0.00 in0.0 mm
09:15 AM 29.1°F-1.6°C 24.6°F-4.1°C 83% 1.0 mph E1.6 kmh E 5.0 mph8.0 kmh 29.63 in1003.4 mb 0.00 in0.0 mm 0.00 in0.0 mm 0.00 in0.0 mm
09:20 AM 29.3°F-1.5°C 24.6°F-4.1°C 83% 2.0 mph E3.2 kmh E 6.0 mph9.7 kmh 29.62 in1003.0 mb 0.00 in0.0 mm 0.00 in0.0 mm 0.00 in0.0 mm
09:25 AM 29.5°F-1.4°C 24.8°F-4.0°C 83% 3.0 mph E4.8 kmh E 8.0 mph12.9 kmh 29.62 in1003.0 mb 0.00 in0.0 mm 0.00 in0.0 mm 0.00 in0.0 mm
09:30 AM 29.7°F-1.3°C 24.8°F-4.0°C 82% 3.0 mph E4.8 kmh E 8.0 mph12.9 kmh 29.62 in1003.0 mb 0.00 in0.0 mm 0.00 in0.0 mm 0.00 in0.0 mm
09:35 AM 29.8°F-1.2°C 25.0°F-3.9°C 82% 3.0 mph E4.8 kmh E 7.0 mph11.3 kmh 29.62 in1003.0 mb 0.00 in0.0 mm 0.00 in0.0 mm 0.00 in0.0 mm
09:40 AM 30.0°F-1.1°C 25.3°F-3.7°C 82% 2.0 mph E3.2 kmh E 7.0 mph11.3 kmh 29.62 in1003.0 mb 0.00 in0.0 mm 0.00 in0.0 mm 0.00 in0.0 mm
09:45 AM 30.4°F-0.9°C 25.5°F-3.6°C 82% 1.0 mph E1.6 kmh E 6.0 mph9.7 kmh 29.62 in1003.0 mb 0.00 in0.0 mm 0.00 in0.0 mm 0.00 in0.0 mm
09:50 AM 30.7°F-0.7°C 25.9°F-3.4°C 82% Calm Calm 4.0 mph6.4 kmh 29.62 in1003.0 mb 0.00 in0.0 mm 0.00 in0.0 mm 0.00 in0.0 mm
09:55 AM 30.7°F-0.7°C 25.7°F-3.5°C 81% 1.0 mph E1.6 kmh E 5.0 mph8.0 kmh 29.62 in1003.0 mb 0.00 in0.0 mm 0.00 in0.0 mm 0.00 in0.0 mm
10:00 AM 30.9°F-0.6°C 25.9°F-3.4°C 81% 2.0 mph E3.2 kmh E 5.0 mph8.0 kmh 29.62 in1003.0 mb 0.00 in0.0 mm 0.00 in0.0 mm 0.00 in0.0 mm
10:05 AM 31.3°F-0.4°C 26.1°F-3.3°C 81% 1.0 mph E1.6 kmh E 4.0 mph6.4 kmh 29.62 in1003.0 mb 0.00 in0.0 mm 0.00 in0.0 mm 0.00 in0.0 mm
10:10 AM 31.5°F-0.3°C 26.2°F-3.2°C 81% 1.0 mph E1.6 kmh E 3.0 mph4.8 kmh 29.62 in1003.0 mb 0.00 in0.0 mm 0.00 in0.0 mm 0.00 in0.0 mm
10:15 AM 31.6°F-0.2°C 26.6°F-3.0°C 81% Calm Calm 3.0 mph4.8 kmh 29.63 in1003.4 mb 0.00 in0.0 mm 0.00 in0.0 mm 0.00 in0.0 mm
10:20 AM 31.8°F-0.1°C 26.4°F-3.1°C 80% 1.0 mph E1.6 kmh E 4.0 mph6.4 kmh 29.63 in1003.4 mb 0.00 in0.0 mm 0.00 in0.0 mm 0.00 in0.0 mm
10:25 AM 32.0°F0.0°C 26.6°F-3.0°C 80% 1.0 mph E1.6 kmh E 4.0 mph6.4 kmh 29.62 in1003.0 mb 0.00 in0.0 mm 0.00 in0.0 mm 0.00 in0.0 mm
10:30 AM 32.2°F0.1°C 26.6°F-3.0°C 80% 1.0 mph E1.6 kmh E 4.0 mph6.4 kmh 29.62 in1003.0 mb 0.00 in0.0 mm 0.00 in0.0 mm 0.00 in0.0 mm
10:35 AM 32.5°F0.3°C 27.0°F-2.8°C 80% 1.0 mph E1.6 kmh E 3.0 mph4.8 kmh 29.62 in1003.0 mb 0.00 in0.0 mm 0.00 in0.0 mm 0.00 in0.0 mm
10:40 AM 32.9°F0.5°C 27.3°F-2.6°C 80% Calm Calm 3.0 mph4.8 kmh 29.62 in1003.0 mb 0.00 in0.0 mm 0.00 in0.0 mm 0.00 in0.0 mm
10:45 AM 33.3°F0.7°C 27.3°F-2.6°C 79% 1.0 mph ESE1.6 kmh ESE 4.0 mph6.4 kmh 29.62 in1003.0 mb 0.00 in0.0 mm 0.00 in0.0 mm 0.00 in0.0 mm
10:50 AM 33.3°F0.7°C 27.5°F-2.5°C 79% 1.0 mph E1.6 kmh E 5.0 mph8.0 kmh 29.62 in1003.0 mb 0.00 in0.0 mm 0.00 in0.0 mm 0.00 in0.0 mm
10:55 AM 33.6°F0.9°C 27.9°F-2.3°C 79% 1.0 mph E1.6 kmh E 5.0 mph8.0 kmh 29.62 in1003.0 mb 0.00 in0.0 mm 0.00 in0.0 mm 0.00 in0.0 mm
11:00 AM 33.8°F1.0°C 27.7°F-2.4°C 78% 1.0 mph E1.6 kmh E 5.0 mph8.0 kmh 29.63 in1003.4 mb 0.00 in0.0 mm 0.00 in0.0 mm 0.00 in0.0 mm
11:05 AM 34.0°F1.1°C 27.7°F-2.4°C 78% 1.0 mph E1.6 kmh E 5.0 mph8.0 kmh 29.63 in1003.4 mb 0.00 in0.0 mm 0.00 in0.0 mm 0.00 in0.0 mm
11:10 AM 34.0°F1.1°C 27.9°F-2.3°C 78% 2.0 mph E3.2 kmh E 5.0 mph8.0 kmh 29.62 in1003.0 mb 0.00 in0.0 mm 0.00 in0.0 mm 0.00 in0.0 mm
11:15 AM 34.2°F1.2°C 28.0°F-2.2°C 78% 2.0 mph E3.2 kmh E 5.0 mph8.0 kmh 29.62 in1003.0 mb 0.00 in0.0 mm 0.00 in0.0 mm 0.00 in0.0 mm
11:20 AM 34.5°F1.4°C 28.4°F-2.0°C 78% 2.0 mph E3.2 kmh E 5.0 mph8.0 kmh 29.62 in1003.0 mb 0.00 in0.0 mm 0.00 in0.0 mm 0.00 in0.0 mm
11:25 AM 34.7°F1.5°C 28.2°F-2.1°C 77% 1.0 mph E1.6 kmh E 6.0 mph9.7 kmh 29.62 in1003.0 mb 0.00 in0.0 mm 0.00 in0.0 mm 0.00 in0.0 mm
11:30 AM 34.9°F1.6°C 28.4°F-2.0°C 77% 2.0 mph E3.2 kmh E 6.0 mph9.7 kmh 29.62 in1003.0 mb 0.00 in0.0 mm 0.00 in0.0 mm 0.00 in0.0 mm
11:35 AM 35.2°F1.8°C 28.8°F-1.8°C 77% 1.0 mph E1.6 kmh E 4.0 mph6.4 kmh 29.62 in1003.0 mb 0.00 in0.0 mm 0.00 in0.0 mm 0.00 in0.0 mm
11:40 AM 35.2°F1.8°C 28.8°F-1.8°C 77% 1.0 mph E1.6 kmh E 4.0 mph6.4 kmh 29.61 in1002.7 mb 0.00 in0.0 mm 0.00 in0.0 mm 0.00 in0.0 mm
11:45 AM 35.2°F1.8°C 28.8°F-1.8°C 77% 1.0 mph E1.6 kmh E 4.0 mph6.4 kmh 29.61 in1002.7 mb 0.00 in0.0 mm 0.00 in0.0 mm 0.00 in0.0 mm
11:50 AM 35.2°F1.8°C 28.8°F-1.8°C 77% 2.0 mph E3.2 kmh E 5.0 mph8.0 kmh 29.61 in1002.7 mb 0.00 in0.0 mm 0.00 in0.0 mm 0.00 in0.0 mm
11:55 AM 35.4°F1.9°C 28.9°F-1.7°C 77% 2.0 mph E3.2 kmh E 5.0 mph8.0 kmh 29.61 in1002.7 mb 0.00 in0.0 mm 0.00 in0.0 mm 0.00 in0.0 mm
12:00 PM 35.8°F2.1°C 28.9°F-1.7°C 76% 2.0 mph ESE3.2 kmh ESE 6.0 mph9.7 kmh 29.61 in1002.7 mb 0.00 in0.0 mm 0.00 in0.0 mm 0.00 in0.0 mm
12:05 PM 36.0°F2.2°C 29.1°F-1.6°C 76% 2.0 mph SE3.2 kmh SE 6.0 mph9.7 kmh 29.61 in1002.7 mb 0.00 in0.0 mm 0.00 in0.0 mm 0.00 in0.0 mm
12:10 PM 36.3°F2.4°C 29.5°F-1.4°C 76% 1.0 mph SSE1.6 kmh SSE 4.0 mph6.4 kmh 29.61 in1002.7 mb 0.00 in0.0 mm 0.00 in0.0 mm 0.00 in0.0 mm
12:15 PM 36.9°F2.7°C 29.7°F-1.3°C 75% 1.0 mph SE1.6 kmh SE 5.0 mph8.0 kmh 29.61 in1002.7 mb 0.00 in0.0 mm 0.00 in0.0 mm 0.00 in0.0 mm
12:20 PM 37.0°F2.8°C 29.8°F-1.2°C 75% 1.0 mph SE1.6 kmh SE 5.0 mph8.0 kmh 29.62 in1003.0 mb 0.00 in0.0 mm 0.00 in0.0 mm 0.00 in0.0 mm
12:25 PM 37.2°F2.9°C 29.7°F-1.3°C 74% 1.0 mph SE1.6 kmh SE 5.0 mph8.0 kmh 29.62 in1003.0 mb 0.00 in0.0 mm 0.00 in0.0 mm 0.00 in0.0 mm
12:30 PM 37.2°F2.9°C 29.8°F-1.2°C 74% 1.0 mph SE1.6 kmh SE 3.0 mph4.8 kmh 29.62 in1003.0 mb 0.00 in0.0 mm 0.00 in0.0 mm 0.00 in0.0 mm
12:35 PM 37.4°F3.0°C 29.8°F-1.2°C 74% 1.0 mph SSE1.6 kmh SSE 3.0 mph4.8 kmh 29.62 in1003.0 mb 0.00 in0.0 mm 0.00 in0.0 mm 0.00 in0.0 mm
12:40 PM 37.6°F3.1°C 30.0°F-1.1°C 74% 1.0 mph SE1.6 kmh SE 4.0 mph6.4 kmh 29.61 in1002.7 mb 0.00 in0.0 mm 0.00 in0.0 mm 0.00 in0.0 mm
12:45 PM 37.8°F3.2°C 30.2°F-1.0°C 74% 1.0 mph SE1.6 kmh SE 4.0 mph6.4 kmh 29.61 in1002.7 mb 0.00 in0.0 mm 0.00 in0.0 mm 0.00 in0.0 mm
12:50 PM 37.8°F3.2°C 30.2°F-1.0°C 74% Calm Calm 3.0 mph4.8 kmh 29.61 in1002.7 mb 0.00 in0.0 mm 0.00 in0.0 mm 0.00 in0.0 mm
12:55 PM 37.9°F3.3°C 30.4°F-0.9°C 74% 1.0 mph SE1.6 kmh SE 3.0 mph4.8 kmh 29.61 in1002.7 mb 0.00 in0.0 mm 0.00 in0.0 mm 0.00 in0.0 mm
01:00 PM 38.1°F3.4°C 30.6°F-0.8°C 74% 1.0 mph SE1.6 kmh SE 5.0 mph8.0 kmh 29.61 in1002.7 mb 0.01 in0.3 mm 0.01 in0.3 mm 0.01 in0.3 mm
01:05 PM 38.5°F3.6°C 30.6°F-0.8°C 73% 1.0 mph SE1.6 kmh SE 5.0 mph8.0 kmh 29.60 in1002.4 mb 0.01 in0.3 mm 0.00 in0.0 mm 0.01 in0.3 mm
01:10 PM 38.7°F3.7°C 30.7°F-0.7°C 73% 1.0 mph ESE1.6 kmh ESE 4.0 mph6.4 kmh 29.59 in1002.0 mb 0.01 in0.3 mm 0.00 in0.0 mm 0.01 in0.3 mm
01:15 PM 38.8°F3.8°C 30.9°F-0.6°C 73% 2.0 mph E3.2 kmh E 5.0 mph8.0 kmh 29.59 in1002.0 mb 0.01 in0.3 mm 0.00 in0.0 mm 0.01 in0.3 mm
01:20 PM 39.6°F4.2°C 31.6°F-0.2°C 73% 2.0 mph ESE3.2 kmh ESE 5.0 mph8.0 kmh 29.60 in1002.4 mb 0.01 in0.3 mm 0.00 in0.0 mm 0.01 in0.3 mm
01:25 PM 40.1°F4.5°C 31.5°F-0.3°C 71% 1.0 mph S1.6 kmh S 6.0 mph9.7 kmh 29.60 in1002.4 mb 0.01 in0.3 mm 0.00 in0.0 mm 0.01 in0.3 mm
01:30 PM 40.8°F4.9°C 32.2°F0.1°C 71% 1.0 mph S1.6 kmh S 6.0 mph9.7 kmh 29.59 in1002.0 mb 0.02 in0.5 mm 0.12 in3.0 mm 0.02 in0.5 mm
01:35 PM 40.8°F4.9°C 32.2°F0.1°C 71% 2.0 mph S3.2 kmh S 7.0 mph11.3 kmh 29.60 in1002.4 mb 0.02 in0.5 mm 0.00 in0.0 mm 0.02 in0.5 mm
01:40 PM 41.0°F5.0°C 32.0°F0.0°C 70% 3.0 mph S4.8 kmh S 7.0 mph11.3 kmh 29.60 in1002.4 mb 0.02 in0.5 mm 0.00 in0.0 mm 0.02 in0.5 mm
01:45 PM 41.0°F5.0°C 32.4°F0.2°C 71% 2.0 mph S3.2 kmh S 7.0 mph11.3 kmh 29.59 in1002.0 mb 0.02 in0.5 mm 0.00 in0.0 mm 0.02 in0.5 mm
01:50 PM 41.0°F5.0°C 32.4°F0.2°C 71% 2.0 mph S3.2 kmh S 7.0 mph11.3 kmh 29.59 in1002.0 mb 0.02 in0.5 mm 0.00 in0.0 mm 0.02 in0.5 mm
01:55 PM 40.8°F4.9°C 32.5°F0.3°C 72% 2.0 mph S3.2 kmh S 7.0 mph11.3 kmh 29.59 in1002.0 mb 0.01 in0.3 mm 0.00 in0.0 mm 0.02 in0.5 mm
02:00 PM 40.6°F4.8°C 32.4°F0.2°C 72% 3.0 mph S4.8 kmh S 9.0 mph14.5 kmh 29.59 in1002.0 mb 0.01 in0.3 mm 0.00 in0.0 mm 0.02 in0.5 mm
02:05 PM 40.3°F4.6°C 32.4°F0.2°C 73% 4.0 mph S6.4 kmh S 9.0 mph14.5 kmh 29.59 in1002.0 mb 0.02 in0.5 mm 0.12 in3.0 mm 0.02 in0.5 mm
02:10 PM 40.3°F4.6°C 32.7°F0.4°C 74% 3.0 mph S4.8 kmh S 8.0 mph12.9 kmh 29.59 in1002.0 mb 0.02 in0.5 mm 0.00 in0.0 mm 0.02 in0.5 mm
02:15 PM 40.3°F4.6°C 32.7°F0.4°C 74% 3.0 mph S4.8 kmh S 6.0 mph9.7 kmh 29.58 in1001.7 mb 0.02 in0.5 mm 0.00 in0.0 mm 0.02 in0.5 mm
02:20 PM 40.8°F4.9°C 33.1°F0.6°C 74% 2.0 mph SSE3.2 kmh SSE 5.0 mph8.0 kmh 29.59 in1002.0 mb 0.02 in0.5 mm 0.00 in0.0 mm 0.02 in0.5 mm
02:25 PM 41.2°F5.1°C 33.1°F0.6°C 73% 2.0 mph S3.2 kmh S 5.0 mph8.0 kmh 29.59 in1002.0 mb 0.02 in0.5 mm 0.00 in0.0 mm 0.02 in0.5 mm
02:30 PM 41.5°F5.3°C 33.4°F0.8°C 73% 3.0 mph S4.8 kmh S 6.0 mph9.7 kmh 29.59 in1002.0 mb 0.01 in0.3 mm 0.00 in0.0 mm 0.02 in0.5 mm
02:35 PM 41.7°F5.4°C 33.4°F0.8°C 72% 3.0 mph S4.8 kmh S 6.0 mph9.7 kmh 29.59 in1002.0 mb 0.02 in0.5 mm 0.12 in3.0 mm 0.03 in0.8 mm
02:40 PM 41.7°F5.4°C 33.3°F0.7°C 72% 3.0 mph S4.8 kmh S 5.0 mph8.0 kmh 29.58 in1001.7 mb 0.02 in0.5 mm 0.00 in0.0 mm 0.03 in0.8 mm
02:45 PM 41.5°F5.3°C 33.1°F0.6°C 72% 3.0 mph S4.8 kmh S 5.0 mph8.0 kmh 29.59 in1002.0 mb 0.02 in0.5 mm 0.00 in0.0 mm 0.03 in0.8 mm
02:50 PM 41.4°F5.2°C 33.1°F0.6°C 72% 2.0 mph S3.2 kmh S 6.0 mph9.7 kmh 29.58 in1001.7 mb 0.02 in0.5 mm 0.00 in0.0 mm 0.03 in0.8 mm
02:55 PM 41.4°F5.2°C 33.3°F0.7°C 73% 2.0 mph S3.2 kmh S 6.0 mph9.7 kmh 29.58 in1001.7 mb 0.02 in0.5 mm 0.00 in0.0 mm 0.03 in0.8 mm
03:00 PM 41.5°F5.3°C 33.4°F0.8°C 73% 2.0 mph S3.2 kmh S 4.0 mph6.4 kmh 29.58 in1001.7 mb 0.01 in0.3 mm 0.00 in0.0 mm 0.03 in0.8 mm
03:05 PM 41.9°F5.5°C 33.8°F1.0°C 73% 2.0 mph S3.2 kmh S 6.0 mph9.7 kmh 29.58 in1001.7 mb 0.01 in0.3 mm 0.00 in0.0 mm 0.03 in0.8 mm
03:10 PM 41.9°F5.5°C 33.4°F0.8°C 72% 2.0 mph S3.2 kmh S 6.0 mph9.7 kmh 29.58 in1001.7 mb 0.01 in0.3 mm 0.00 in0.0 mm 0.03 in0.8 mm
03:15 PM 41.7°F5.4°C 33.6°F0.9°C 73% 2.0 mph S3.2 kmh S 5.0 mph8.0 kmh 29.58 in1001.7 mb 0.01 in0.3 mm 0.00 in0.0 mm 0.03 in0.8 mm
03:20 PM 41.7°F5.4°C 33.8°F1.0°C 73% 2.0 mph S3.2 kmh S 6.0 mph9.7 kmh 29.58 in1001.7 mb 0.01 in0.3 mm 0.00 in0.0 mm 0.03 in0.8 mm
03:25 PM 41.7°F5.4°C 33.8°F1.0°C 73% 2.0 mph S3.2 kmh S 6.0 mph9.7 kmh 29.58 in1001.7 mb 0.01 in0.3 mm 0.00 in0.0 mm 0.03 in0.8 mm
03:30 PM 41.5°F5.3°C 33.8°F1.0°C 74% 3.0 mph S4.8 kmh S 6.0 mph9.7 kmh 29.58 in1001.7 mb 0.01 in0.3 mm 0.00 in0.0 mm 0.03 in0.8 mm
03:35 PM 41.4°F5.2°C 33.6°F0.9°C 74% 2.0 mph S3.2 kmh S 7.0 mph11.3 kmh 29.58 in1001.7 mb 0.00 in0.0 mm 0.00 in0.0 mm 0.03 in0.8 mm
03:40 PM 41.2°F5.1°C 33.8°F1.0°C 75% 2.0 mph S3.2 kmh S 7.0 mph11.3 kmh 29.58 in1001.7 mb 0.00 in0.0 mm 0.00 in0.0 mm 0.03 in0.8 mm
03:45 PM 41.2°F5.1°C 33.8°F1.0°C 75% 2.0 mph S3.2 kmh S 5.0 mph8.0 kmh 29.58 in1001.7 mb 0.01 in0.3 mm 0.12 in3.0 mm 0.04 in1.0 mm
03:50 PM 41.2°F5.1°C 33.8°F1.0°C 75% 1.0 mph S1.6 kmh S 4.0 mph6.4 kmh 29.57 in1001.4 mb 0.01 in0.3 mm 0.00 in0.0 mm 0.04 in1.0 mm
03:55 PM 40.8°F4.9°C 33.8°F1.0°C 76% 1.0 mph SSE1.6 kmh SSE 3.0 mph4.8 kmh 29.57 in1001.4 mb 0.01 in0.3 mm 0.00 in0.0 mm 0.04 in1.0 mm
04:00 PM 40.5°F4.7°C 33.4°F0.8°C 76% Calm Calm 2.0 mph3.2 kmh 29.57 in1001.4 mb 0.01 in0.3 mm 0.00 in0.0 mm 0.04 in1.0 mm
04:05 PM 40.3°F4.6°C 33.6°F0.9°C 77% Calm Calm 2.0 mph3.2 kmh 29.57 in1001.4 mb 0.01 in0.3 mm 0.00 in0.0 mm 0.04 in1.0 mm
04:10 PM 40.1°F4.5°C 33.4°F0.8°C 77% Calm Calm 1.0 mph1.6 kmh 29.57 in1001.4 mb 0.01 in0.3 mm 0.00 in0.0 mm 0.04 in1.0 mm
04:15 PM 39.9°F4.4°C 33.6°F0.9°C 78% Calm Calm 1.0 mph1.6 kmh 29.57 in1001.4 mb 0.01 in0.3 mm 0.00 in0.0 mm 0.04 in1.0 mm
04:20 PM 39.6°F4.2°C 33.3°F0.7°C 78% Calm Calm 1.0 mph1.6 kmh 29.57 in1001.4 mb 0.01 in0.3 mm 0.00 in0.0 mm 0.04 in1.0 mm
04:25 PM 39.4°F4.1°C 33.4°F0.8°C 79% Calm Calm 1.0 mph1.6 kmh 29.57 in1001.4 mb 0.01 in0.3 mm 0.00 in0.0 mm 0.04 in1.0 mm
04:30 PM 39.4°F4.1°C 33.4°F0.8°C 79% Calm Calm 1.0 mph1.6 kmh 29.57 in1001.4 mb 0.01 in0.3 mm 0.00 in0.0 mm 0.04 in1.0 mm
04:35 PM 39.4°F4.1°C 33.4°F0.8°C 79% Calm Calm 1.0 mph1.6 kmh 29.57 in1001.4 mb 0.01 in0.3 mm 0.00 in0.0 mm 0.04 in1.0 mm
04:40 PM 39.6°F4.2°C 33.4°F0.8°C 79% Calm Calm 1.0 mph1.6 kmh 29.56 in1001.0 mb 0.01 in0.3 mm 0.00 in0.0 mm 0.04 in1.0 mm
04:45 PM 39.6°F4.2°C 33.4°F0.8°C 79% Calm Calm 1.0 mph1.6 kmh 29.56 in1001.0 mb 0.00 in0.0 mm 0.00 in0.0 mm 0.04 in1.0 mm
04:50 PM 39.7°F4.3°C 33.8°F1.0°C 79% Calm Calm 3.0 mph4.8 kmh 29.56 in1001.0 mb 0.00 in0.0 mm 0.00 in0.0 mm 0.04 in1.0 mm
04:55 PM 39.7°F4.3°C 33.4°F0.8°C 78% Calm Calm 3.0 mph4.8 kmh 29.56 in1001.0 mb 0.00 in0.0 mm 0.00 in0.0 mm 0.04 in1.0 mm
05:00 PM 39.6°F4.2°C 33.3°F0.7°C 78% Calm Calm 3.0 mph4.8 kmh 29.56 in1001.0 mb 0.00 in0.0 mm 0.00 in0.0 mm 0.04 in1.0 mm
05:05 PM 39.6°F4.2°C 33.3°F0.7°C 78% 1.0 mph E1.6 kmh E 3.0 mph4.8 kmh 29.56 in1001.0 mb 0.00 in0.0 mm 0.00 in0.0 mm 0.04 in1.0 mm
05:10 PM 39.7°F4.3°C 33.4°F0.8°C 78% 1.0 mph E1.6 kmh E 4.0 mph6.4 kmh 29.55 in1000.7 mb 0.00 in0.0 mm 0.00 in0.0 mm 0.04 in1.0 mm
05:15 PM 39.7°F4.3°C 33.4°F0.8°C 78% 2.0 mph E3.2 kmh E 5.0 mph8.0 kmh 29.55 in1000.7 mb 0.00 in0.0 mm 0.00 in0.0 mm 0.04 in1.0 mm
05:20 PM 39.7°F4.3°C 33.3°F0.7°C 77% 2.0 mph E3.2 kmh E 5.0 mph8.0 kmh 29.55 in1000.7 mb 0.00 in0.0 mm 0.00 in0.0 mm 0.04 in1.0 mm
05:25 PM 39.7°F4.3°C 33.3°F0.7°C 77% 2.0 mph E3.2 kmh E 5.0 mph8.0 kmh 29.55 in1000.7 mb 0.00 in0.0 mm 0.00 in0.0 mm 0.04 in1.0 mm
05:30 PM 39.7°F4.3°C 33.3°F0.7°C 77% 2.0 mph ENE3.2 kmh ENE 6.0 mph9.7 kmh 29.55 in1000.7 mb 0.00 in0.0 mm 0.00 in0.0 mm 0.04 in1.0 mm
05:35 PM 39.9°F4.4°C 33.3°F0.7°C 77% 3.0 mph E4.8 kmh E 6.0 mph9.7 kmh 29.55 in1000.7 mb 0.00 in0.0 mm 0.00 in0.0 mm 0.04 in1.0 mm
05:40 PM 39.7°F4.3°C 33.3°F0.7°C 77% 3.0 mph E4.8 kmh E 6.0 mph9.7 kmh 29.55 in1000.7 mb 0.00 in0.0 mm 0.00 in0.0 mm 0.04 in1.0 mm
05:45 PM 39.7°F4.3°C 33.3°F0.7°C 77% 2.0 mph E3.2 kmh E 4.0 mph6.4 kmh 29.54 in1000.3 mb 0.00 in0.0 mm 0.00 in0.0 mm 0.04 in1.0 mm
05:50 PM 39.7°F4.3°C 33.4°F0.8°C 78% 2.0 mph E3.2 kmh E 4.0 mph6.4 kmh 29.55 in1000.7 mb 0.00 in0.0 mm 0.00 in0.0 mm 0.04 in1.0 mm
05:55 PM 39.6°F4.2°C 33.6°F0.9°C 79% 1.0 mph E1.6 kmh E 4.0 mph6.4 kmh 29.55 in1000.7 mb 0.00 in0.0 mm 0.00 in0.0 mm 0.04 in1.0 mm
06:00 PM 39.6°F4.2°C 33.6°F0.9°C 79% 1.0 mph E1.6 kmh E 3.0 mph4.8 kmh 29.54 in1000.3 mb 0.00 in0.0 mm 0.00 in0.0 mm 0.04 in1.0 mm
06:05 PM 39.6°F4.2°C 34.0°F1.1°C 80% 1.0 mph E1.6 kmh E 3.0 mph4.8 kmh 29.54 in1000.3 mb 0.00 in0.0 mm 0.00 in0.0 mm 0.04 in1.0 mm
06:10 PM 39.6°F4.2°C 33.8°F1.0°C 80% 1.0 mph E1.6 kmh E 5.0 mph8.0 kmh 29.54 in1000.3 mb 0.00 in0.0 mm 0.00 in0.0 mm 0.04 in1.0 mm
06:15 PM 39.6°F4.2°C 34.0°F1.1°C 80% 1.0 mph E1.6 kmh E 5.0 mph8.0 kmh 29.54 in1000.3 mb 0.00 in0.0 mm 0.00 in0.0 mm 0.04 in1.0 mm
06:20 PM 39.6°F4.2°C 34.0°F1.1°C 80% 2.0 mph E3.2 kmh E 5.0 mph8.0 kmh 29.54 in1000.3 mb 0.00 in0.0 mm 0.00 in0.0 mm 0.04 in1.0 mm
06:25 PM 39.6°F4.2°C 34.2°F1.2°C 81% 2.0 mph E3.2 kmh E 4.0 mph6.4 kmh 29.54 in1000.3 mb 0.00 in0.0 mm 0.00 in0.0 mm 0.04 in1.0 mm
06:30 PM 39.6°F4.2°C 34.2°F1.2°C 81% 2.0 mph E3.2 kmh E 5.0 mph8.0 kmh 29.54 in1000.3 mb 0.00 in0.0 mm 0.00 in0.0 mm 0.04 in1.0 mm
06:35 PM 39.6°F4.2°C 34.2°F1.2°C 81% 2.0 mph E3.2 kmh E 6.0 mph9.7 kmh 29.54 in1000.3 mb 0.00 in0.0 mm 0.00 in0.0 mm 0.04 in1.0 mm
06:40 PM 39.7°F4.3°C 34.3°F1.3°C 81% 2.0 mph E3.2 kmh E 6.0 mph9.7 kmh 29.54 in1000.3 mb 0.00 in0.0 mm 0.00 in0.0 mm 0.04 in1.0 mm
06:45 PM 39.7°F4.3°C 34.5°F1.4°C 81% 2.0 mph E3.2 kmh E 5.0 mph8.0 kmh 29.54 in1000.3 mb 0.00 in0.0 mm 0.00 in0.0 mm 0.04 in1.0 mm
06:50 PM 39.7°F4.3°C 34.5°F1.4°C 81% 2.0 mph E3.2 kmh E 4.0 mph6.4 kmh 29.54 in1000.3 mb 0.00 in0.0 mm 0.00 in0.0 mm 0.04 in1.0 mm
06:55 PM 39.7°F4.3°C 34.5°F1.4°C 81% 2.0 mph E3.2 kmh E 6.0 mph9.7 kmh 29.54 in1000.3 mb 0.00 in0.0 mm 0.00 in0.0 mm 0.04 in1.0 mm
07:00 PM 39.7°F4.3°C 34.7°F1.5°C 82% 2.0 mph E3.2 kmh E 6.0 mph9.7 kmh 29.53 in1000.0 mb 0.00 in0.0 mm 0.00 in0.0 mm 0.04 in1.0 mm
07:05 PM 39.7°F4.3°C 34.7°F1.5°C 82% 2.0 mph E3.2 kmh E 6.0 mph9.7 kmh 29.53 in1000.0 mb 0.00 in0.0 mm 0.00 in0.0 mm 0.04 in1.0 mm
07:10 PM 39.7°F4.3°C 34.7°F1.5°C 82% 2.0 mph E3.2 kmh E 6.0 mph9.7 kmh 29.53 in1000.0 mb 0.00 in0.0 mm 0.00 in0.0 mm 0.04 in1.0 mm
07:15 PM 39.6°F4.2°C 34.9°F1.6°C 83% 2.0 mph E3.2 kmh E 6.0 mph9.7 kmh 29.53 in1000.0 mb 0.00 in0.0 mm 0.00 in0.0 mm 0.04 in1.0 mm
07:20 PM 39.6°F4.2°C 34.9°F1.6°C 83% 2.0 mph E3.2 kmh E 5.0 mph8.0 kmh 29.53 in1000.0 mb 0.00 in0.0 mm 0.00 in0.0 mm 0.04 in1.0 mm
07:25 PM 39.6°F4.2°C 35.2°F1.8°C 84% 2.0 mph E3.2 kmh E 5.0 mph8.0 kmh 29.54 in1000.3 mb 0.00 in0.0 mm 0.00 in0.0 mm 0.04 in1.0 mm
07:30 PM 39.6°F4.2°C 35.2°F1.8°C 84% 2.0 mph E3.2 kmh E 6.0 mph9.7 kmh 29.54 in1000.3 mb 0.00 in0.0 mm 0.00 in0.0 mm 0.04 in1.0 mm
07:35 PM 39.6°F4.2°C 35.1°F1.7°C 84% 1.0 mph E1.6 kmh E 6.0 mph9.7 kmh 29.53 in1000.0 mb 0.00 in0.0 mm 0.00 in0.0 mm 0.04 in1.0 mm
07:40 PM 39.7°F4.3°C 35.2°F1.8°C 84% 2.0 mph E3.2 kmh E 7.0 mph11.3 kmh 29.53 in1000.0 mb 0.00 in0.0 mm 0.00 in0.0 mm 0.04 in1.0 mm
07:45 PM 39.7°F4.3°C 35.4°F1.9°C 84% 3.0 mph E4.8 kmh E 8.0 mph12.9 kmh 29.53 in1000.0 mb 0.00 in0.0 mm 0.00 in0.0 mm 0.04 in1.0 mm
07:50 PM 39.9°F4.4°C 35.2°F1.8°C 83% 3.0 mph E4.8 kmh E 8.0 mph12.9 kmh 29.53 in1000.0 mb 0.00 in0.0 mm 0.00 in0.0 mm 0.04 in1.0 mm
07:55 PM 39.9°F4.4°C 35.2°F1.8°C 83% 3.0 mph E4.8 kmh E 6.0 mph9.7 kmh 29.53 in1000.0 mb 0.00 in0.0 mm 0.00 in0.0 mm 0.04 in1.0 mm
08:00 PM 39.7°F4.3°C 35.1°F1.7°C 83% 2.0 mph E3.2 kmh E 6.0 mph9.7 kmh 29.53 in1000.0 mb 0.00 in0.0 mm 0.00 in0.0 mm 0.04 in1.0 mm
08:05 PM 39.9°F4.4°C 35.2°F1.8°C 83% 3.0 mph E4.8 kmh E 6.0 mph9.7 kmh 29.52 in999.7 mb 0.00 in0.0 mm 0.00 in0.0 mm 0.04 in1.0 mm
08:10 PM 39.9°F4.4°C 35.2°F1.8°C 83% 2.0 mph E3.2 kmh E 5.0 mph8.0 kmh 29.52 in999.7 mb 0.00 in0.0 mm 0.00 in0.0 mm 0.04 in1.0 mm
08:15 PM 39.9°F4.4°C 35.2°F1.8°C 83% 2.0 mph E3.2 kmh E 7.0 mph11.3 kmh 29.52 in999.7 mb 0.00 in0.0 mm 0.00 in0.0 mm 0.04 in1.0 mm
08:20 PM 39.9°F4.4°C 35.2°F1.8°C 83% 3.0 mph E4.8 kmh E 8.0 mph12.9 kmh 29.52 in999.7 mb 0.00 in0.0 mm 0.00 in0.0 mm 0.04 in1.0 mm
08:25 PM 39.9°F4.4°C 34.9°F1.6°C 82% 4.0 mph E6.4 kmh E 8.0 mph12.9 kmh 29.52 in999.7 mb 0.00 in0.0 mm 0.00 in0.0 mm 0.04 in1.0 mm
08:30 PM 39.7°F4.3°C 34.7°F1.5°C 82% 4.0 mph E6.4 kmh E 8.0 mph12.9 kmh 29.52 in999.7 mb 0.00 in0.0 mm 0.00 in0.0 mm 0.04 in1.0 mm
08:35 PM 39.9°F4.4°C 34.9°F1.6°C 82% 3.0 mph E4.8 kmh E 8.0 mph12.9 kmh 29.52 in999.7 mb 0.00 in0.0 mm 0.00 in0.0 mm 0.04 in1.0 mm
08:40 PM 39.9°F4.4°C 34.9°F1.6°C 82% 4.0 mph E6.4 kmh E 9.0 mph14.5 kmh 29.51 in999.3 mb 0.00 in0.0 mm 0.00 in0.0 mm 0.04 in1.0 mm
08:45 PM 40.1°F4.5°C 35.1°F1.7°C 82% 4.0 mph E6.4 kmh E 9.0 mph14.5 kmh 29.51 in999.3 mb 0.00 in0.0 mm 0.00 in0.0 mm 0.04 in1.0 mm
08:50 PM 40.1°F4.5°C 35.1°F1.7°C 82% 4.0 mph ENE6.4 kmh ENE 7.0 mph11.3 kmh 29.51 in999.3 mb 0.00 in0.0 mm 0.00 in0.0 mm 0.04 in1.0 mm
08:55 PM 40.1°F4.5°C 34.7°F1.5°C 81% 3.0 mph E4.8 kmh E 7.0 mph11.3 kmh 29.51 in999.3 mb 0.00 in0.0 mm 0.00 in0.0 mm 0.04 in1.0 mm
09:00 PM 40.1°F4.5°C 34.7°F1.5°C 81% 4.0 mph E6.4 kmh E 8.0 mph12.9 kmh 29.51 in999.3 mb 0.00 in0.0 mm 0.00 in0.0 mm 0.04 in1.0 mm
09:05 PM 40.1°F4.5°C 34.7°F1.5°C 81% 4.0 mph E6.4 kmh E 8.0 mph12.9 kmh 29.50 in999.0 mb 0.00 in0.0 mm 0.00 in0.0 mm 0.04 in1.0 mm
09:10 PM 40.1°F4.5°C 34.7°F1.5°C 81% 4.0 mph E6.4 kmh E 9.0 mph14.5 kmh 29.50 in999.0 mb 0.00 in0.0 mm 0.00 in0.0 mm 0.04 in1.0 mm
09:15 PM 40.3°F4.6°C 34.9°F1.6°C 81% 4.0 mph E6.4 kmh E 9.0 mph14.5 kmh 29.50 in999.0 mb 0.00 in0.0 mm 0.00 in0.0 mm 0.04 in1.0 mm
09:20 PM 40.3°F4.6°C 34.9°F1.6°C 81% 4.0 mph E6.4 kmh E 9.0 mph14.5 kmh 29.50 in999.0 mb 0.00 in0.0 mm 0.00 in0.0 mm 0.04 in1.0 mm
09:25 PM 40.3°F4.6°C 34.9°F1.6°C 81% 3.0 mph E4.8 kmh E 9.0 mph14.5 kmh 29.50 in999.0 mb 0.00 in0.0 mm 0.00 in0.0 mm 0.04 in1.0 mm
09:30 PM 40.3°F4.6°C 34.9°F1.6°C 81% 2.0 mph E3.2 kmh E 6.0 mph9.7 kmh 29.50 in999.0 mb 0.00 in0.0 mm 0.00 in0.0 mm 0.04 in1.0 mm
09:35 PM 40.3°F4.6°C 34.9°F1.6°C 81% 2.0 mph E3.2 kmh E 6.0 mph9.7 kmh 29.50 in999.0 mb 0.00 in0.0 mm 0.00 in0.0 mm 0.04 in1.0 mm
09:40 PM 40.5°F4.7°C 35.1°F1.7°C 81% 3.0 mph E4.8 kmh E 7.0 mph11.3 kmh 29.50 in999.0 mb 0.00 in0.0 mm 0.00 in0.0 mm 0.04 in1.0 mm
09:45 PM 40.6°F4.8°C 34.9°F1.6°C 80% 3.0 mph E4.8 kmh E 7.0 mph11.3 kmh 29.50 in999.0 mb 0.00 in0.0 mm 0.00 in0.0 mm 0.04 in1.0 mm
09:50 PM 40.6°F4.8°C 35.1°F1.7°C 80% 3.0 mph E4.8 kmh E 7.0 mph11.3 kmh 29.50 in999.0 mb 0.00 in0.0 mm 0.00 in0.0 mm 0.04 in1.0 mm
09:55 PM 40.6°F4.8°C 35.1°F1.7°C 80% 2.0 mph E3.2 kmh E 7.0 mph11.3 kmh 29.50 in999.0 mb 0.00 in0.0 mm 0.00 in0.0 mm 0.04 in1.0 mm
10:00 PM 40.6°F4.8°C 35.1°F1.7°C 80% 3.0 mph E4.8 kmh E 7.0 mph11.3 kmh 29.49 in998.6 mb 0.00 in0.0 mm 0.00 in0.0 mm 0.04 in1.0 mm
10:05 PM 40.6°F4.8°C 35.1°F1.7°C 80% 4.0 mph E6.4 kmh E 8.0 mph12.9 kmh 29.50 in999.0 mb 0.00 in0.0 mm 0.00 in0.0 mm 0.04 in1.0 mm
10:10 PM 40.6°F4.8°C 34.9°F1.6°C 80% 3.0 mph E4.8 kmh E 8.0 mph12.9 kmh 29.49 in998.6 mb 0.00 in0.0 mm 0.00 in0.0 mm 0.04 in1.0 mm
10:15 PM 40.5°F4.7°C 34.9°F1.6°C 80% 2.0 mph E3.2 kmh E 7.0 mph11.3 kmh 29.49 in998.6 mb 0.00 in0.0 mm 0.00 in0.0 mm 0.04 in1.0 mm
10:20 PM 40.5°F4.7°C 34.9°F1.6°C 80% 3.0 mph E4.8 kmh E 9.0 mph14.5 kmh 29.49 in998.6 mb 0.00 in0.0 mm 0.00 in0.0 mm 0.04 in1.0 mm
10:25 PM 40.5°F4.7°C 34.7°F1.5°C 80% 4.0 mph E6.4 kmh E 9.0 mph14.5 kmh 29.49 in998.6 mb 0.00 in0.0 mm 0.00 in0.0 mm 0.04 in1.0 mm
10:30 PM 40.3°F4.6°C 34.7°F1.5°C 80% 4.0 mph E6.4 kmh E 8.0 mph12.9 kmh 29.49 in998.6 mb 0.00 in0.0 mm 0.00 in0.0 mm 0.04 in1.0 mm
10:35 PM 40.3°F4.6°C 34.5°F1.4°C 80% 4.0 mph E6.4 kmh E 8.0 mph12.9 kmh 29.49 in998.6 mb 0.00 in0.0 mm 0.00 in0.0 mm 0.04 in1.0 mm
10:40 PM 40.1°F4.5°C 34.7°F1.5°C 81% 3.0 mph E4.8 kmh E 7.0 mph11.3 kmh 29.50 in999.0 mb 0.00 in0.0 mm 0.00 in0.0 mm 0.04 in1.0 mm
10:45 PM 39.9°F4.4°C 34.7°F1.5°C 81% 2.0 mph E3.2 kmh E 7.0 mph11.3 kmh 29.49 in998.6 mb 0.00 in0.0 mm 0.00 in0.0 mm 0.04 in1.0 mm
10:50 PM 39.9°F4.4°C 34.5°F1.4°C 81% 2.0 mph E3.2 kmh E 6.0 mph9.7 kmh 29.49 in998.6 mb 0.00 in0.0 mm 0.00 in0.0 mm 0.04 in1.0 mm
10:55 PM 39.7°F4.3°C 34.7°F1.5°C 82% 3.0 mph ENE4.8 kmh ENE 6.0 mph9.7 kmh 29.49 in998.6 mb 0.00 in0.0 mm 0.00 in0.0 mm 0.04 in1.0 mm
11:00 PM 39.7°F4.3°C 34.7°F1.5°C 82% 3.0 mph ENE4.8 kmh ENE 6.0 mph9.7 kmh 29.49 in998.6 mb 0.00 in0.0 mm 0.00 in0.0 mm 0.04 in1.0 mm
11:05 PM 39.6°F4.2°C 34.5°F1.4°C 82% 3.0 mph E4.8 kmh E 7.0 mph11.3 kmh 29.49 in998.6 mb 0.00 in0.0 mm 0.00 in0.0 mm 0.04 in1.0 mm
11:10 PM 39.6°F4.2°C 34.5°F1.4°C 82% 4.0 mph E6.4 kmh E 9.0 mph14.5 kmh 29.48 in998.3 mb 0.00 in0.0 mm 0.00 in0.0 mm 0.04 in1.0 mm
11:15 PM 39.6°F4.2°C 34.5°F1.4°C 82% 4.0 mph E6.4 kmh E 9.0 mph14.5 kmh 29.48 in998.3 mb 0.00 in0.0 mm 0.00 in0.0 mm 0.04 in1.0 mm
11:20 PM 39.6°F4.2°C 34.9°F1.6°C 83% 4.0 mph E6.4 kmh E 9.0 mph14.5 kmh 29.48 in998.3 mb 0.00 in0.0 mm 0.00 in0.0 mm 0.04 in1.0 mm
11:25 PM 39.6°F4.2°C 34.9°F1.6°C 83% 4.0 mph E6.4 kmh E 9.0 mph14.5 kmh 29.48 in998.3 mb 0.00 in0.0 mm 0.00 in0.0 mm 0.04 in1.0 mm
11:30 PM 39.6°F4.2°C 34.9°F1.6°C 83% 4.0 mph E6.4 kmh E 9.0 mph14.5 kmh 29.48 in998.3 mb 0.00 in0.0 mm 0.00 in0.0 mm 0.04 in1.0 mm
11:35 PM 39.6°F4.2°C 34.9°F1.6°C 83% 4.0 mph E6.4 kmh E 9.0 mph14.5 kmh 29.47 in998.0 mb 0.00 in0.0 mm 0.00 in0.0 mm 0.04 in1.0 mm
11:40 PM 39.6°F4.2°C 34.9°F1.6°C 83% 4.0 mph E6.4 kmh E 8.0 mph12.9 kmh 29.47 in998.0 mb 0.00 in0.0 mm 0.00 in0.0 mm 0.04 in1.0 mm
11:45 PM 39.7°F4.3°C 34.9°F1.6°C 83% 4.0 mph E6.4 kmh E 8.0 mph12.9 kmh 29.48 in998.3 mb 0.00 in0.0 mm 0.00 in0.0 mm 0.04 in1.0 mm
11:50 PM 39.7°F4.3°C 34.9°F1.6°C 83% 3.0 mph E4.8 kmh E 7.0 mph11.3 kmh 29.48 in998.3 mb 0.00 in0.0 mm 0.00 in0.0 mm 0.04 in1.0 mm
11:55 PM 39.6°F4.2°C 34.9°F1.6°C 83% 2.0 mph E3.2 kmh E 6.0 mph9.7 kmh 29.48 in998.3 mb 0.00 in0.0 mm 0.00 in0.0 mm 0.04 in1.0 mm